KCFE

Buffalo Municipal Airport

Buffalo, Minnesota, USA
METAR KCFE 182335Z AUTO 18003KT 10SM CLR 27/17 A3000 RMK AO2 T02650166
Observed Flight Rules
Aug-18 @ 23:35 UTC (10 minutes ago) Visual Flight Rules
Wind Visibility Clouds
180° at 3 knots 10 miles
  • Clear skies
Temperatures Readings
Current 27°C / 81°F
Dewpoint 17°C / 63°F
Humidity 54%
Altimeter 30" Hg
Pressure 1016 hPa
Elevation 295
METAR KCFE 182335Z AUTO 18003KT 10SM CLR 27/17 A3000 RMK AO2 T02650166
Observed Flight Rules
Aug-18 @ 23:35 UTC
(10 minutes ago)
VFR
Wind Visibility
180° at 3 knots 10 miles
Clouds
  • Clear skies
Temperature Dewpoint
27°C / 81°F 17°C / 63°F
Humidity Altimeter Pressure
54% 30" Hg 1016 hPa